CheckWX is a tool to help pilots better visualize weather data.  It is not intended as a substitute for an official pre-flight weather briefing.

09:08:43 UTC

SBSN TAF
Maestro Wilson Fonseca Airport
Santarém, Brazil
TAF SBSN 060900Z 0612/0712 00000KT CAVOK TX31/0618Z TN23/0708Z BECMG 0613/0615 BECMG 0613/0615 09008KT 9999 SCT017 BECMG 0619/0621 SCT020 FEW025TCU BECMG 0622/0624 FEW020 BECMG 0703/0705 00000KT CAVOK RMK PEN

Jul-6@
12:00 UTC

Jul-6 @ 12:00 UTC

Jul-6@
13:00 UTC

Jul-6 @ 13:00 UTC

TAF SBSN 060900Z 0612/0712 00000KT CAVOK TX31/0618Z TN23/0708Z

Expired

Cloud Levels
  • No significant clouds

Jul-6@
13:00 UTC

Jul-6 @ 13:00 UTC

Jul-6@
19:00 UTC

Jul-6 @ 19:00 UTC

BECMG 0613/0615 09008KT 9999 SCT017

Expired

Wind
  • 090° at 8 KTS
Cloud Levels
  • Scattered at 1,700' AGL

Jul-6@
19:00 UTC

Jul-6 @ 19:00 UTC

Jul-6@
22:00 UTC

Jul-6 @ 22:00 UTC

BECMG 0619/0621 SCT020 FEW025TCU

Expired

Wind
  • 090° at 8 KTS
Cloud Levels
  • Scattered at 2,000' AGL
  • Few at 2,500' AGL

Jul-6@
22:00 UTC

Jul-6 @ 22:00 UTC

Jul-7@
03:00 UTC

Jul-7 @ 03:00 UTC

BECMG 0622/0624 FEW020

Expired

Wind
  • 090° at 8 KTS
Cloud Levels
  • Few at 2,000' AGL

Jul-7@
03:00 UTC

Jul-7 @ 03:00 UTC

Jul-7@
12:00 UTC

Jul-7 @ 12:00 UTC

BECMG 0703/0705 00000KT CAVOK RMK PEN

Becoming

Becoming Conditions expected by Tue, Jul 7, 2020 @ 05:00 UTC

Conditions
No significant weather
Cloud Levels
  • No significant clouds